createdAt,value
2023-10-11T00:00:41.050Z,86.65
2023-10-11T00:03:19.670Z,86.56
2023-10-11T00:05:48.101Z,86.33
2023-10-11T00:08:20.337Z,86.36
2023-10-11T00:10:56.576Z,86.91
2023-10-11T00:13:25.077Z,86.89
2023-10-11T00:15:53.459Z,86.91
2023-10-11T00:18:27.660Z,86.87
2023-10-11T00:20:58.519Z,87.34
2023-10-11T00:23:27.105Z,87.33
2023-10-11T00:26:01.959Z,88.13
2023-10-11T00:28:33.402Z,88.30
2023-10-11T00:31:02.227Z,88.35
2023-10-11T00:33:39.004Z,87.77
2023-10-11T00:36:07.545Z,87.89
2023-10-11T00:38:44.671Z,88.44
2023-10-11T00:41:16.767Z,88.55
2023-10-11T00:43:50.747Z,88.10
2023-10-11T00:46:20.601Z,88.57
2023-10-11T00:49:07.264Z,88.69
2023-10-11T00:51:34.301Z,88.93
2023-10-11T00:54:02.886Z,88.44
2023-10-11T00:56:33.847Z,88.46
2023-10-11T00:59:04.129Z,88.92
2023-10-11T01:01:34.430Z,90.47
2023-10-11T01:04:01.988Z,89.96
2023-10-11T01:06:30.378Z,90.01
2023-10-11T01:08:56.998Z,90.89
2023-10-11T01:11:24.242Z,90.79
2023-10-11T01:13:53.923Z,90.72
2023-10-11T01:16:27.917Z,90.21
2023-10-11T01:18:55.008Z,92.38
2023-10-11T01:21:21.818Z,91.67
2023-10-11T01:23:49.737Z,91.51
2023-10-11T01:26:16.544Z,92.00
2023-10-11T01:28:49.194Z,91.73
2023-10-11T01:31:18.411Z,92.88
2023-10-11T01:33:50.369Z,92.75
2023-10-11T01:36:22.492Z,91.83
2023-10-11T01:38:49.290Z,91.79
2023-10-11T01:41:23.742Z,92.63
2023-10-11T01:43:51.644Z,92.60
2023-10-11T01:46:26.409Z,92.67
2023-10-11T01:48:57.050Z,93.31
2023-10-11T01:51:28.662Z,93.78
2023-10-11T01:53:56.350Z,92.93
2023-10-11T01:56:25.096Z,92.99
2023-10-11T01:58:52.485Z,93.25
2023-10-11T02:01:23.701Z,94.39
2023-10-11T02:04:00.986Z,94.03
2023-10-11T02:06:33.602Z,94.36
2023-10-11T02:09:01.459Z,94.31
2023-10-11T02:11:30.784Z,94.56
2023-10-11T02:13:58.958Z,95.02
2023-10-11T02:16:26.593Z,94.20
2023-10-11T02:18:59.760Z,94.49
2023-10-11T02:21:33.228Z,94.85
2023-10-11T02:24:00.635Z,95.33
2023-10-11T02:26:35.810Z,95.83
2023-10-11T02:29:07.850Z,95.92
2023-10-11T02:31:35.325Z,96.54
2023-10-11T02:34:14.938Z,96.54
2023-10-11T02:36:46.074Z,96.27
2023-10-11T02:39:19.284Z,95.98
2023-10-11T02:41:58.736Z,96.17
2023-10-11T02:44:26.487Z,95.79
2023-10-11T02:46:54.247Z,97.00
2023-10-11T02:49:21.183Z,97.70
2023-10-11T02:51:54.669Z,97.75
2023-10-11T02:54:22.120Z,97.30
2023-10-11T02:56:48.919Z,96.98
2023-10-11T02:59:25.477Z,96.80
2023-10-11T03:02:03.006Z,96.76
2023-10-11T03:04:34.172Z,97.24
2023-10-11T03:07:01.602Z,97.07
2023-10-11T03:09:31.599Z,97.92
2023-10-11T03:11:58.362Z,97.76
2023-10-11T03:14:26.139Z,97.68
2023-10-11T03:16:57.675Z,97.36
2023-10-11T03:19:25.677Z,97.46
2023-10-11T03:21:55.298Z,97.31
2023-10-11T03:24:22.996Z,97.83
2023-10-11T03:26:49.836Z,98.37
2023-10-11T03:29:20.052Z,98.77
2023-10-11T03:31:46.937Z,98.02
2023-10-11T03:34:13.702Z,97.89
2023-10-11T03:36:53.489Z,98.49
2023-10-11T03:39:37.179Z,98.61
2023-10-11T03:42:13.366Z,99.08
2023-10-11T03:44:48.030Z,99.04
2023-10-11T03:47:16.563Z,99.52
2023-10-11T03:49:43.293Z,99.69
2023-10-11T03:52:32.024Z,99.46
2023-10-11T03:55:12.037Z,98.30
2023-10-11T03:57:43.091Z,99.08
2023-10-11T04:00:24.013Z,99.08
2023-10-11T04:02:58.992Z,98.84
2023-10-11T04:05:35.780Z,99.50
2023-10-11T04:08:07.570Z,99.64
2023-10-11T04:10:41.209Z,100.00
2023-10-11T04:13:16.183Z,99.46
2023-10-11T04:15:43.517Z,99.64
2023-10-11T04:18:34.428Z,99.44
2023-10-11T04:21:11.530Z,99.73
2023-10-11T04:23:40.942Z,98.95
2023-10-11T04:26:24.074Z,99.83
2023-10-11T04:28:53.531Z,99.77
2023-10-11T04:31:32.349Z,99.63
2023-10-11T04:34:00.992Z,99.68
2023-10-11T04:36:30.369Z,99.66
2023-10-11T04:39:14.308Z,99.50
2023-10-11T04:41:50.298Z,99.15
2023-10-11T04:44:18.731Z,100.00
2023-10-11T04:46:56.390Z,99.85
2023-10-11T04:49:26.026Z,99.87
2023-10-11T04:51:57.818Z,100.00
2023-10-11T04:54:37.428Z,100.00
2023-10-11T04:57:21.475Z,100.00
2023-10-11T04:59:48.295Z,100.00
2023-10-11T05:02:25.298Z,100.00
2023-10-11T05:04:53.159Z,99.71
2023-10-11T05:07:23.192Z,99.86
2023-10-11T05:09:58.375Z,99.75
2023-10-11T05:12:25.604Z,99.49
2023-10-11T05:14:55.219Z,100.00
2023-10-11T05:17:25.082Z,100.00
2023-10-11T05:20:06.368Z,100.00
2023-10-11T05:22:50.690Z,100.00
2023-10-11T05:25:19.304Z,100.00
2023-10-11T05:28:08.935Z,100.00
2023-10-11T05:30:36.233Z,100.00
2023-10-11T05:33:03.041Z,100.00
2023-10-11T05:35:47.736Z,99.95
2023-10-11T05:38:34.862Z,100.00
2023-10-11T05:41:31.521Z,100.00
2023-10-11T05:44:17.859Z,100.00
2023-10-11T05:47:03.367Z,100.00
2023-10-11T05:49:49.764Z,99.84
2023-10-11T05:52:17.354Z,100.00
2023-10-11T05:54:46.869Z,100.00
2023-10-11T05:57:15.224Z,100.00
2023-10-11T05:59:48.482Z,99.84
2023-10-11T06:02:15.074Z,100.00
2023-10-11T06:04:42.111Z,100.00
2023-10-11T06:07:12.812Z,99.28
2023-10-11T06:09:47.098Z,98.93
2023-10-11T06:12:24.214Z,97.85
2023-10-11T06:14:52.499Z,98.03
2023-10-11T06:17:22.466Z,97.62
2023-10-11T06:19:55.414Z,96.81
2023-10-11T06:22:23.870Z,96.15
2023-10-11T06:24:50.705Z,96.17
2023-10-11T06:27:35.808Z,95.60
2023-10-11T06:30:07.562Z,95.69
2023-10-11T06:32:37.205Z,95.07
2023-10-11T06:35:06.858Z,95.14
2023-10-11T06:37:36.334Z,94.58
2023-10-11T06:40:03.198Z,94.97
2023-10-11T06:42:32.721Z,93.85
2023-10-11T06:45:07.416Z,93.56
2023-10-11T06:47:37.052Z,94.03
2023-10-11T06:50:12.278Z,94.37
2023-10-11T06:52:44.679Z,94.22
2023-10-11T06:55:18.802Z,93.82
2023-10-11T06:57:53.693Z,93.39
2023-10-11T07:00:24.150Z,92.37
2023-10-11T07:03:08.626Z,91.23
2023-10-11T07:05:43.211Z,90.27
2023-10-11T07:08:11.258Z,89.16
2023-10-11T07:10:42.966Z,88.23
2023-10-11T07:13:13.897Z,88.66
2023-10-11T07:15:45.580Z,88.27
2023-10-11T07:18:26.532Z,87.39
2023-10-11T07:21:07.156Z,87.78
2023-10-11T07:23:57.255Z,87.72
2023-10-11T07:26:31.810Z,86.47
2023-10-11T07:29:00.736Z,84.74
2023-10-11T07:31:33.594Z,82.75
2023-10-11T07:34:03.430Z,80.14
2023-10-11T07:36:32.523Z,73.89
2023-10-11T07:39:01.678Z,74.41
2023-10-11T07:41:31.556Z,74.26
2023-10-11T07:43:58.816Z,71.02
2023-10-11T07:46:29.732Z,70.96
2023-10-11T07:49:05.175Z,67.94
2023-10-11T07:51:37.320Z,64.47
2023-10-11T07:54:20.810Z,64.81
2023-10-11T07:56:50.222Z,63.30
2023-10-11T07:59:17.214Z,61.88
2023-10-11T08:01:46.840Z,60.76
2023-10-11T08:04:22.873Z,62.47
2023-10-11T08:07:04.935Z,59.57
2023-10-11T08:09:46.989Z,55.37
2023-10-11T08:12:16.343Z,58.24
2023-10-11T08:14:47.069Z,57.03
2023-10-11T08:17:18.914Z,58.51
2023-10-11T08:19:46.408Z,57.29
2023-10-11T08:22:15.670Z,57.09
2023-10-11T08:24:47.619Z,56.10
2023-10-11T08:27:23.938Z,55.84
2023-10-11T08:30:03.510Z,57.06
2023-10-11T08:32:31.147Z,55.08
2023-10-11T08:34:57.973Z,54.22
2023-10-11T08:37:25.017Z,54.57
2023-10-11T08:39:55.594Z,53.35
2023-10-11T08:42:24.105Z,56.12
2023-10-11T08:44:52.677Z,59.74
2023-10-11T08:47:20.690Z,60.07
2023-10-11T08:49:50.401Z,61.67
2023-10-11T08:52:25.973Z,62.51
2023-10-11T08:54:52.945Z,63.83
2023-10-11T08:57:24.647Z,64.55
2023-10-11T08:59:53.088Z,63.98
2023-10-11T09:02:20.648Z,63.73
2023-10-11T09:05:08.652Z,64.19
2023-10-11T09:07:41.182Z,64.18
2023-10-11T09:10:31.373Z,64.98
2023-10-11T09:13:02.304Z,65.38
2023-10-11T09:15:42.146Z,66.16
2023-10-11T09:18:21.340Z,66.34
2023-10-11T09:20:57.060Z,66.69
2023-10-11T09:23:40.085Z,66.33
2023-10-11T09:26:09.448Z,66.65
2023-10-11T09:28:42.118Z,66.87
2023-10-11T09:31:12.106Z,66.98
2023-10-11T09:33:51.570Z,66.27
2023-10-11T09:36:23.807Z,66.45
2023-10-11T09:38:55.923Z,66.70
2023-10-11T09:41:29.508Z,66.73
2023-10-11T09:44:00.817Z,66.32
2023-10-11T09:46:31.667Z,65.48
2023-10-11T09:49:01.272Z,65.07
2023-10-11T09:51:29.489Z,64.86
2023-10-11T09:54:02.854Z,64.30
2023-10-11T09:56:56.197Z,63.70
2023-10-11T09:59:29.289Z,63.52
2023-10-11T10:02:11.034Z,63.58
2023-10-11T10:04:52.679Z,63.44
2023-10-11T10:07:38.740Z,63.12
2023-10-11T10:10:05.931Z,62.56
2023-10-11T10:12:34.431Z,62.61
2023-10-11T10:15:09.390Z,62.25
2023-10-11T10:17:39.034Z,62.33
2023-10-11T10:20:34.293Z,62.11
2023-10-11T10:23:18.295Z,62.75
2023-10-11T10:25:48.995Z,63.16
2023-10-11T10:28:33.861Z,63.00
2023-10-11T10:31:11.200Z,62.43
2023-10-11T10:33:38.814Z,62.96
2023-10-11T10:36:21.684Z,62.88
2023-10-11T10:39:26.093Z,62.49
2023-10-11T10:42:13.651Z,62.33
2023-10-11T10:44:50.747Z,62.27
2023-10-11T10:47:30.640Z,61.87
2023-10-11T10:49:58.301Z,61.13
2023-10-11T10:52:29.100Z,60.63
2023-10-11T10:55:04.627Z,60.22
2023-10-11T10:57:38.361Z,60.39
2023-10-11T11:00:08.914Z,60.95
2023-10-11T11:02:39.016Z,60.79
2023-10-11T11:05:17.172Z,60.76
2023-10-11T11:07:53.148Z,60.67
2023-10-11T11:10:26.099Z,60.90
2023-10-11T11:12:53.033Z,61.12
2023-10-11T11:15:22.553Z,61.10
2023-10-11T11:17:51.484Z,60.80
2023-10-11T11:20:30.907Z,60.88
2023-10-11T11:22:57.558Z,60.67
2023-10-11T11:25:32.446Z,60.80
2023-10-11T11:28:26.352Z,61.01
2023-10-11T11:30:53.063Z,60.63
2023-10-11T11:33:32.788Z,60.28
2023-10-11T11:35:59.385Z,60.13
2023-10-11T11:38:30.936Z,59.93
2023-10-11T11:41:14.832Z,60.10
2023-10-11T11:43:47.931Z,59.74
2023-10-11T11:46:17.201Z,59.94
2023-10-11T11:48:44.681Z,60.52
2023-10-11T11:51:15.310Z,59.65
2023-10-11T11:53:44.655Z,59.71
2023-10-11T11:56:12.755Z,59.70
2023-10-11T11:58:46.896Z,59.82
2023-10-11T12:01:17.807Z,60.02
2023-10-11T12:03:53.602Z,59.66
2023-10-11T12:06:24.731Z,59.66
2023-10-11T12:08:59.539Z,59.35
2023-10-11T12:11:32.032Z,58.96
2023-10-11T12:14:01.383Z,59.05
2023-10-11T12:16:30.645Z,58.33
2023-10-11T12:19:00.937Z,58.14
2023-10-11T12:21:30.396Z,58.14
2023-10-11T12:23:58.727Z,58.00
2023-10-11T12:26:28.256Z,57.78
2023-10-11T12:28:55.972Z,57.84
2023-10-11T12:31:22.773Z,57.86
2023-10-11T12:33:49.526Z,57.80
2023-10-11T12:36:21.615Z,57.38
2023-10-11T12:38:50.231Z,57.16
2023-10-11T12:41:17.427Z,56.27
2023-10-11T12:43:47.058Z,56.79
2023-10-11T12:46:16.993Z,56.68
2023-10-11T12:48:46.246Z,55.93
2023-10-11T12:51:12.957Z,55.65
2023-10-11T12:53:39.544Z,54.87
2023-10-11T12:56:09.142Z,55.03
2023-10-11T12:58:41.938Z,55.04
2023-10-11T13:01:15.061Z,54.80
2023-10-11T13:03:44.126Z,54.58
2023-10-11T13:06:11.703Z,54.54
2023-10-11T13:08:39.140Z,54.72
2023-10-11T13:11:14.448Z,55.01
2023-10-11T13:13:45.053Z,55.06
2023-10-11T13:16:23.752Z,55.23
2023-10-11T13:18:50.342Z,55.49
2023-10-11T13:21:18.083Z,54.86
2023-10-11T13:23:45.330Z,55.81
2023-10-11T13:26:19.674Z,55.50
2023-10-11T13:28:54.658Z,55.61
2023-10-11T13:31:21.534Z,56.92
2023-10-11T13:33:48.223Z,57.52
2023-10-11T13:36:15.423Z,55.68
2023-10-11T13:38:46.286Z,57.37
2023-10-11T13:41:13.835Z,57.25
2023-10-11T13:43:41.697Z,56.59
2023-10-11T13:46:08.958Z,56.33
2023-10-11T13:48:41.396Z,56.54
2023-10-11T13:51:10.852Z,56.12
2023-10-11T13:53:43.229Z,56.88
2023-10-11T13:56:23.186Z,56.00
2023-10-11T13:58:52.828Z,56.16
2023-10-11T14:01:47.025Z,57.39
2023-10-11T14:04:18.376Z,56.88
2023-10-11T14:07:01.373Z,57.10
2023-10-11T14:09:31.836Z,57.30
2023-10-11T14:11:58.548Z,56.87
2023-10-11T14:14:26.091Z,57.19
2023-10-11T14:16:53.955Z,57.34
2023-10-11T14:19:25.995Z,57.25
2023-10-11T14:21:53.408Z,57.22
2023-10-11T14:24:20.790Z,57.30
2023-10-11T14:26:48.924Z,57.11
2023-10-11T14:29:17.375Z,57.22
2023-10-11T14:31:44.612Z,57.38
2023-10-11T14:34:12.231Z,57.44
2023-10-11T14:36:42.500Z,57.18
2023-10-11T14:39:19.594Z,57.36
2023-10-11T14:41:52.126Z,57.81
2023-10-11T14:44:19.172Z,57.88
2023-10-11T14:46:46.288Z,58.08
2023-10-11T14:49:13.270Z,58.12
2023-10-11T14:51:41.217Z,58.30
2023-10-11T14:54:08.033Z,58.46
2023-10-11T14:56:35.417Z,58.79
2023-10-11T14:59:02.653Z,58.70
2023-10-11T15:01:35.004Z,58.96
2023-10-11T15:04:10.927Z,59.29
2023-10-11T15:06:47.085Z,59.54
2023-10-11T15:09:15.011Z,59.42
2023-10-11T15:11:41.717Z,59.63
2023-10-11T15:14:08.486Z,59.63
2023-10-11T15:16:36.882Z,59.36
2023-10-11T15:19:10.869Z,59.45
2023-10-11T15:21:40.665Z,59.68
2023-10-11T15:24:14.541Z,59.90
2023-10-11T15:26:41.600Z,59.93
2023-10-11T15:29:08.255Z,59.53
2023-10-11T15:31:35.481Z,59.72
2023-10-11T15:34:05.170Z,59.75
2023-10-11T15:36:31.923Z,59.92
2023-10-11T15:38:58.856Z,60.16
2023-10-11T15:41:25.619Z,60.52
2023-10-11T15:43:53.424Z,60.16
2023-10-11T15:46:23.082Z,60.74
2023-10-11T15:48:50.881Z,61.10
2023-10-11T15:51:20.645Z,60.93
2023-10-11T15:53:47.209Z,60.91
2023-10-11T15:56:15.905Z,60.96
2023-10-11T15:58:45.545Z,61.22
2023-10-11T16:01:15.640Z,61.28
2023-10-11T16:03:45.456Z,61.84
2023-10-11T16:06:13.643Z,62.23
2023-10-11T16:08:40.481Z,62.44
2023-10-11T16:11:14.585Z,62.72
2023-10-11T16:13:42.466Z,63.25
2023-10-11T16:16:09.818Z,63.36
2023-10-11T16:18:38.389Z,63.80
2023-10-11T16:21:05.113Z,63.97
2023-10-11T16:23:33.624Z,64.04
2023-10-11T16:26:02.483Z,63.90
2023-10-11T16:28:31.182Z,64.23
2023-10-11T16:30:59.393Z,64.40
2023-10-11T16:33:27.767Z,64.27
2023-10-11T16:35:55.073Z,64.48
2023-10-11T16:38:22.185Z,64.55
2023-10-11T16:40:49.114Z,64.58
2023-10-11T16:43:15.773Z,64.49
2023-10-11T16:45:42.974Z,64.76
2023-10-11T16:48:13.984Z,64.67
2023-10-11T16:50:41.427Z,65.21
2023-10-11T16:53:09.371Z,64.97
2023-10-11T16:55:37.000Z,65.18
2023-10-11T16:58:06.843Z,65.12
2023-10-11T17:00:36.316Z,65.38
2023-10-11T17:03:04.671Z,65.68
2023-10-11T17:05:35.638Z,65.67
2023-10-11T17:08:02.979Z,65.37
2023-10-11T17:10:32.178Z,65.43
2023-10-11T17:13:00.396Z,65.53
2023-10-11T17:15:27.315Z,65.46
2023-10-11T17:17:55.043Z,65.82
2023-10-11T17:20:26.069Z,65.36
2023-10-11T17:22:53.493Z,65.29
2023-10-11T17:25:21.337Z,65.27
2023-10-11T17:27:51.594Z,65.14
2023-10-11T17:30:23.034Z,65.18
2023-10-11T17:32:49.738Z,64.89
2023-10-11T17:35:17.298Z,64.43
2023-10-11T17:37:48.174Z,64.83
2023-10-11T17:40:19.323Z,64.39
2023-10-11T17:42:47.258Z,64.58
2023-10-11T17:45:15.182Z,64.39
2023-10-11T17:47:44.425Z,65.03
2023-10-11T17:50:14.697Z,65.25
2023-10-11T17:52:42.777Z,65.05
2023-10-11T17:55:15.336Z,65.28
2023-10-11T17:57:46.467Z,65.33
2023-10-11T18:00:28.087Z,65.63
2023-10-11T18:02:56.285Z,65.81
2023-10-11T18:05:23.454Z,66.14
2023-10-11T18:07:51.446Z,66.13
2023-10-11T18:10:19.923Z,65.70
2023-10-11T18:12:48.770Z,65.43
2023-10-11T18:15:19.002Z,65.63
2023-10-11T18:17:50.661Z,65.40
2023-10-11T18:20:22.115Z,65.74
2023-10-11T18:22:49.337Z,65.44
2023-10-11T18:25:17.840Z,65.01
2023-10-11T18:27:46.774Z,64.99
2023-10-11T18:30:14.567Z,64.80
2023-10-11T18:32:41.833Z,64.88
2023-10-11T18:35:09.334Z,64.83
2023-10-11T18:37:37.099Z,64.85
2023-10-11T18:40:09.256Z,65.09
2023-10-11T18:42:41.189Z,65.12
2023-10-11T18:45:12.713Z,65.07
2023-10-11T18:47:41.030Z,65.00
2023-10-11T18:50:08.286Z,65.05
2023-10-11T18:52:37.559Z,65.19
2023-10-11T18:55:09.769Z,64.97
2023-10-11T18:57:37.425Z,65.30
2023-10-11T19:00:31.889Z,65.58
2023-10-11T19:02:58.478Z,65.46
2023-10-11T19:05:27.852Z,64.96
2023-10-11T19:07:59.935Z,64.84
2023-10-11T19:10:30.984Z,64.93
2023-10-11T19:12:59.008Z,64.79
2023-10-11T19:15:30.313Z,65.06
2023-10-11T19:17:57.598Z,64.95
2023-10-11T19:20:30.932Z,65.02
2023-10-11T19:23:01.853Z,65.44
2023-10-11T19:25:30.015Z,65.37
2023-10-11T19:27:59.652Z,65.49
2023-10-11T19:30:26.595Z,66.37
2023-10-11T19:32:53.199Z,67.22
2023-10-11T19:35:25.017Z,66.88
2023-10-11T19:37:52.573Z,67.19
2023-10-11T19:40:39.845Z,67.78
2023-10-11T19:43:07.702Z,68.28
2023-10-11T19:45:34.556Z,68.91
2023-10-11T19:48:01.155Z,68.74
2023-10-11T19:50:28.095Z,68.74
2023-10-11T19:52:55.910Z,68.76
2023-10-11T19:55:23.730Z,69.30
2023-10-11T19:57:55.307Z,68.80
2023-10-11T20:00:23.950Z,68.95
2023-10-11T20:02:52.054Z,69.19
2023-10-11T20:05:21.691Z,69.23
2023-10-11T20:07:48.929Z,69.14
2023-10-11T20:10:16.259Z,69.10
2023-10-11T20:12:46.343Z,69.13
2023-10-11T20:15:14.316Z,68.95
2023-10-11T20:17:52.406Z,69.24
2023-10-11T20:20:20.864Z,69.30
2023-10-11T20:22:49.823Z,69.55
2023-10-11T20:25:19.543Z,69.29
2023-10-11T20:27:51.585Z,69.20
2023-10-11T20:30:20.816Z,69.19
2023-10-11T20:32:48.771Z,68.89
2023-10-11T20:35:16.819Z,68.97
2023-10-11T20:37:43.599Z,68.82
2023-10-11T20:40:14.478Z,68.74
2023-10-11T20:42:43.232Z,68.50
2023-10-11T20:45:16.402Z,68.93
2023-10-11T20:47:44.574Z,69.12
2023-10-11T20:50:17.158Z,68.80
2023-10-11T20:52:51.510Z,68.92
2023-10-11T20:55:24.459Z,69.36
2023-10-11T20:58:15.324Z,69.31
2023-10-11T21:00:50.002Z,69.33
2023-10-11T21:03:21.700Z,69.27
2023-10-11T21:05:52.834Z,69.68
2023-10-11T21:08:22.866Z,70.00
2023-10-11T21:10:50.405Z,70.11
2023-10-11T21:13:22.824Z,70.15
2023-10-11T21:15:51.808Z,70.38
2023-10-11T21:18:22.333Z,70.16
2023-10-11T21:20:53.187Z,70.26
2023-10-11T21:23:21.561Z,70.55
2023-10-11T21:25:56.782Z,70.63
2023-10-11T21:28:25.249Z,70.88
2023-10-11T21:30:52.134Z,71.12
2023-10-11T21:33:19.649Z,71.04
2023-10-11T21:35:46.635Z,71.27
2023-10-11T21:38:13.669Z,71.22
2023-10-11T21:40:43.098Z,71.56
2023-10-11T21:43:13.701Z,71.54
2023-10-11T21:45:41.451Z,71.91
2023-10-11T21:48:10.789Z,71.87
2023-10-11T21:50:38.469Z,72.18
2023-10-11T21:53:05.328Z,72.00
2023-10-11T21:55:33.733Z,71.75
2023-10-11T21:58:00.754Z,72.01
2023-10-11T22:00:47.952Z,72.05
2023-10-11T22:03:21.792Z,72.10
2023-10-11T22:05:51.935Z,72.28
2023-10-11T22:08:20.307Z,72.29
2023-10-11T22:10:46.978Z,72.18
2023-10-11T22:13:21.088Z,72.46
2023-10-11T22:15:48.412Z,72.25
2023-10-11T22:18:17.983Z,72.32
2023-10-11T22:20:47.432Z,72.51
2023-10-11T22:23:14.377Z,72.59
2023-10-11T22:25:42.462Z,72.34
2023-10-11T22:28:09.660Z,72.38
2023-10-11T22:30:41.616Z,72.64
2023-10-11T22:33:11.276Z,72.54
2023-10-11T22:35:43.712Z,72.30
2023-10-11T22:38:10.646Z,72.36
2023-10-11T22:40:40.915Z,72.42
2023-10-11T22:45:40.189Z,72.54
2023-10-11T22:48:07.224Z,72.09
2023-10-11T22:50:34.885Z,71.93
2023-10-11T22:53:02.717Z,72.13
2023-10-11T22:55:33.152Z,71.95
2023-10-11T22:58:03.812Z,72.16
2023-10-11T23:00:34.242Z,72.67
2023-10-11T23:03:02.566Z,72.67
2023-10-11T23:05:31.661Z,73.04
2023-10-11T23:07:58.864Z,72.95
2023-10-11T23:10:27.148Z,73.11
2023-10-11T23:12:57.597Z,73.07
2023-10-11T23:15:34.991Z,73.98
2023-10-11T23:18:14.472Z,73.58
2023-10-11T23:20:47.122Z,73.58
2023-10-11T23:23:22.364Z,73.57
2023-10-11T23:25:59.377Z,73.66
2023-10-11T23:28:26.443Z,73.23
2023-10-11T23:30:56.403Z,73.54
2023-10-11T23:33:35.330Z,73.86
2023-10-11T23:36:11.793Z,73.35
2023-10-11T23:38:51.587Z,73.51
2023-10-11T23:41:21.157Z,73.32
2023-10-11T23:44:00.408Z,73.44
2023-10-11T23:46:36.758Z,73.43
2023-10-11T23:49:09.938Z,74.23
2023-10-11T23:51:40.941Z,73.41
2023-10-11T23:54:12.539Z,74.02
2023-10-11T23:56:45.453Z,74.39
2023-10-11T23:59:17.730Z,74.15
